sensor_id;sensor_type;location;lat;lon;timestamp;P1;durP1;ratioP1;P2;durP2;ratioP2
74383;SDS011;62824;52.994;-3.936;2024-02-04T00:00:40;5.10;;;3.10;;
74383;SDS011;62824;52.994;-3.936;2024-02-04T00:05:34;6.63;;;3.00;;
74383;SDS011;62824;52.994;-3.936;2024-02-04T00:08:05;4.38;;;2.60;;
74383;SDS011;62824;52.994;-3.936;2024-02-04T00:10:32;9.38;;;3.00;;
74383;SDS011;62824;52.994;-3.936;2024-02-04T00:13:05;95.15;;;7.57;;
74383;SDS011;62824;52.994;-3.936;2024-02-04T00:15:42;18.85;;;3.33;;
74383;SDS011;62824;52.994;-3.936;2024-02-04T00:18:08;5.63;;;2.28;;
74383;SDS011;62824;52.994;-3.936;2024-02-04T00:20:42;4.03;;;2.25;;
74383;SDS011;62824;52.994;-3.936;2024-02-04T00:23:09;5.00;;;1.90;;
74383;SDS011;62824;52.994;-3.936;2024-02-04T00:25:39;5.97;;;2.40;;
74383;SDS011;62824;52.994;-3.936;2024-02-04T00:28:07;32.45;;;4.13;;
74383;SDS011;62824;52.994;-3.936;2024-02-04T00:30:37;3.10;;;1.73;;
74383;SDS011;62824;52.994;-3.936;2024-02-04T00:33:04;4.18;;;1.73;;
74383;SDS011;62824;52.994;-3.936;2024-02-04T00:35:32;4.70;;;1.60;;
74383;SDS011;62824;52.994;-3.936;2024-02-04T00:37:58;3.53;;;1.60;;
74383;SDS011;62824;52.994;-3.936;2024-02-04T00:40:28;3.60;;;1.73;;
74383;SDS011;62824;52.994;-3.936;2024-02-04T00:42:57;4.47;;;1.63;;
74383;SDS011;62824;52.994;-3.936;2024-02-04T00:45:26;3.38;;;1.70;;
74383;SDS011;62824;52.994;-3.936;2024-02-04T00:47:57;2.47;;;1.33;;
74383;SDS011;62824;52.994;-3.936;2024-02-04T00:50:25;4.97;;;1.88;;
74383;SDS011;62824;52.994;-3.936;2024-02-04T00:52:56;17.58;;;3.00;;
74383;SDS011;62824;52.994;-3.936;2024-02-04T00:55:24;7.65;;;2.80;;
74383;SDS011;62824;52.994;-3.936;2024-02-04T00:58:00;5.82;;;2.60;;
74383;SDS011;62824;52.994;-3.936;2024-02-04T01:00:37;7.72;;;2.83;;
74383;SDS011;62824;52.994;-3.936;2024-02-04T01:03:06;11.43;;;4.53;;
74383;SDS011;62824;52.994;-3.936;2024-02-04T01:05:36;103.55;;;10.88;;
74383;SDS011;62824;52.994;-3.936;2024-02-04T01:08:03;5.45;;;2.50;;
74383;SDS011;62824;52.994;-3.936;2024-02-04T01:10:30;6.45;;;2.65;;
74383;SDS011;62824;52.994;-3.936;2024-02-04T01:12:57;4.85;;;2.80;;
74383;SDS011;62824;52.994;-3.936;2024-02-04T01:15:31;9.35;;;3.60;;
74383;SDS011;62824;52.994;-3.936;2024-02-04T01:18:00;7.30;;;2.40;;
74383;SDS011;62824;52.994;-3.936;2024-02-04T01:20:29;10.10;;;3.00;;
74383;SDS011;62824;52.994;-3.936;2024-02-04T01:22:59;7.53;;;2.85;;
74383;SDS011;62824;52.994;-3.936;2024-02-04T01:25:26;4.75;;;2.75;;
74383;SDS011;62824;52.994;-3.936;2024-02-04T01:27:54;8.32;;;3.17;;
74383;SDS011;62824;52.994;-3.936;2024-02-04T01:30:20;34.85;;;4.60;;
74383;SDS011;62824;52.994;-3.936;2024-02-04T01:32:47;140.10;;;12.82;;
74383;SDS011;62824;52.994;-3.936;2024-02-04T01:35:17;37.17;;;3.95;;
74383;SDS011;62824;52.994;-3.936;2024-02-04T01:37:43;3.55;;;1.75;;
74383;SDS011;62824;52.994;-3.936;2024-02-04T01:40:13;3.20;;;1.50;;
74383;SDS011;62824;52.994;-3.936;2024-02-04T01:42:40;2.53;;;1.83;;
74383;SDS011;62824;52.994;-3.936;2024-02-04T01:45:07;1.20;;;0.82;;
74383;SDS011;62824;52.994;-3.936;2024-02-04T01:47:37;1.70;;;0.70;;
74383;SDS011;62824;52.994;-3.936;2024-02-04T01:50:09;0.50;;;0.50;;
74383;SDS011;62824;52.994;-3.936;2024-02-04T01:52:42;2.70;;;0.82;;
74383;SDS011;62824;52.994;-3.936;2024-02-04T01:55:10;4.00;;;1.13;;
74383;SDS011;62824;52.994;-3.936;2024-02-04T01:57:37;3.30;;;1.42;;
74383;SDS011;62824;52.994;-3.936;2024-02-04T02:00:08;3.65;;;1.50;;
74383;SDS011;62824;52.994;-3.936;2024-02-04T02:02:38;6.25;;;2.42;;
74383;SDS011;62824;52.994;-3.936;2024-02-04T02:05:33;11.05;;;2.25;;
74383;SDS011;62824;52.994;-3.936;2024-02-04T02:08:25;4.00;;;1.80;;
74383;SDS011;62824;52.994;-3.936;2024-02-04T02:10:54;3.65;;;1.75;;
74383;SDS011;62824;52.994;-3.936;2024-02-04T02:13:30;3.22;;;1.38;;
74383;SDS011;62824;52.994;-3.936;2024-02-04T02:16:01;4.45;;;1.55;;
74383;SDS011;62824;52.994;-3.936;2024-02-04T02:30:01;3.42;;;1.20;;
74383;SDS011;62824;52.994;-3.936;2024-02-04T02:32:33;4.40;;;1.70;;
74383;SDS011;62824;52.994;-3.936;2024-02-04T02:35:02;1.77;;;1.05;;
74383;SDS011;62824;52.994;-3.936;2024-02-04T02:37:32;2.15;;;0.93;;
74383;SDS011;62824;52.994;-3.936;2024-02-04T02:42:33;1.13;;;0.65;;
74383;SDS011;62824;52.994;-3.936;2024-02-04T02:45:02;2.13;;;0.90;;
74383;SDS011;62824;52.994;-3.936;2024-02-04T02:47:37;1.67;;;0.70;;
74383;SDS011;62824;52.994;-3.936;2024-02-04T02:52:53;1.30;;;0.80;;
74383;SDS011;62824;52.994;-3.936;2024-02-04T02:55:20;1.95;;;0.88;;
74383;SDS011;62824;52.994;-3.936;2024-02-04T02:57:47;1.13;;;0.70;;
74383;SDS011;62824;52.994;-3.936;2024-02-04T03:00:17;2.53;;;1.00;;
74383;SDS011;62824;52.994;-3.936;2024-02-04T03:02:44;1.80;;;0.80;;
74383;SDS011;62824;52.994;-3.936;2024-02-04T03:05:11;1.15;;;0.80;;
74383;SDS011;62824;52.994;-3.936;2024-02-04T03:07:40;2.20;;;0.90;;
74383;SDS011;62824;52.994;-3.936;2024-02-04T03:10:11;1.27;;;1.00;;
74383;SDS011;62824;52.994;-3.936;2024-02-04T03:12:37;1.52;;;0.88;;
74383;SDS011;62824;52.994;-3.936;2024-02-04T03:15:22;1.40;;;0.80;;
74383;SDS011;62824;52.994;-3.936;2024-02-04T03:21:10;2.25;;;0.80;;
74383;SDS011;62824;52.994;-3.936;2024-02-04T03:23:45;1.58;;;0.90;;
74383;SDS011;62824;52.994;-3.936;2024-02-04T03:26:30;0.73;;;0.70;;
74383;SDS011;62824;52.994;-3.936;2024-02-04T03:29:12;1.00;;;0.70;;
74383;SDS011;62824;52.994;-3.936;2024-02-04T03:31:43;0.98;;;0.80;;
74383;SDS011;62824;52.994;-3.936;2024-02-04T03:34:16;1.48;;;0.80;;
74383;SDS011;62824;52.994;-3.936;2024-02-04T03:36:48;1.02;;;0.75;;
74383;SDS011;62824;52.994;-3.936;2024-02-04T03:39:15;2.30;;;0.75;;
74383;SDS011;62824;52.994;-3.936;2024-02-04T03:41:41;0.98;;;0.85;;
74383;SDS011;62824;52.994;-3.936;2024-02-04T03:44:16;1.60;;;0.82;;
74383;SDS011;62824;52.994;-3.936;2024-02-04T03:46:43;0.85;;;0.75;;
74383;SDS011;62824;52.994;-3.936;2024-02-04T03:51:49;1.73;;;0.90;;
74383;SDS011;62824;52.994;-3.936;2024-02-04T03:54:20;1.38;;;0.80;;
74383;SDS011;62824;52.994;-3.936;2024-02-04T03:56:47;1.38;;;0.98;;
74383;SDS011;62824;52.994;-3.936;2024-02-04T03:59:17;1.75;;;1.00;;
74383;SDS011;62824;52.994;-3.936;2024-02-04T04:01:49;2.33;;;1.10;;
74383;SDS011;62824;52.994;-3.936;2024-02-04T04:04:18;1.90;;;0.90;;
74383;SDS011;62824;52.994;-3.936;2024-02-04T04:07:34;2.72;;;1.10;;
74383;SDS011;62824;52.994;-3.936;2024-02-04T04:10:06;1.17;;;0.90;;
74383;SDS011;62824;52.994;-3.936;2024-02-04T04:12:53;1.40;;;1.00;;
74383;SDS011;62824;52.994;-3.936;2024-02-04T04:15:33;2.25;;;1.20;;
74383;SDS011;62824;52.994;-3.936;2024-02-04T04:18:19;2.15;;;1.10;;
74383;SDS011;62824;52.994;-3.936;2024-02-04T04:21:02;1.90;;;1.20;;
74383;SDS011;62824;52.994;-3.936;2024-02-04T04:23:38;2.53;;;1.00;;
74383;SDS011;62824;52.994;-3.936;2024-02-04T04:26:04;1.40;;;1.00;;
74383;SDS011;62824;52.994;-3.936;2024-02-04T04:28:58;2.97;;;1.02;;
74383;SDS011;62824;52.994;-3.936;2024-02-04T04:31:29;1.63;;;1.00;;
74383;SDS011;62824;52.994;-3.936;2024-02-04T04:34:02;2.95;;;1.05;;
74383;SDS011;62824;52.994;-3.936;2024-02-04T04:36:29;2.80;;;1.27;;
74383;SDS011;62824;52.994;-3.936;2024-02-04T04:38:58;12.45;;;1.98;;
74383;SDS011;62824;52.994;-3.936;2024-02-04T04:41:30;3.13;;;1.48;;
74383;SDS011;62824;52.994;-3.936;2024-02-04T04:43:57;26.75;;;3.17;;
74383;SDS011;62824;52.994;-3.936;2024-02-04T04:46:26;3.17;;;1.58;;
74383;SDS011;62824;52.994;-3.936;2024-02-04T04:49:16;16.58;;;2.10;;
74383;SDS011;62824;52.994;-3.936;2024-02-04T04:51:49;21.92;;;2.80;;
74383;SDS011;62824;52.994;-3.936;2024-02-04T04:54:19;2.88;;;1.20;;
74383;SDS011;62824;52.994;-3.936;2024-02-04T04:56:45;8.65;;;2.03;;
74383;SDS011;62824;52.994;-3.936;2024-02-04T04:59:17;30.13;;;3.78;;
74383;SDS011;62824;52.994;-3.936;2024-02-04T05:01:48;4.38;;;2.00;;
74383;SDS011;62824;52.994;-3.936;2024-02-04T05:04:18;26.73;;;3.97;;
74383;SDS011;62824;52.994;-3.936;2024-02-04T05:06:44;111.72;;;9.27;;
74383;SDS011;62824;52.994;-3.936;2024-02-04T05:09:11;71.07;;;7.95;;
74383;SDS011;62824;52.994;-3.936;2024-02-04T05:11:37;224.23;;;16.77;;
74383;SDS011;62824;52.994;-3.936;2024-02-04T05:14:06;269.08;;;25.15;;
74383;SDS011;62824;52.994;-3.936;2024-02-04T05:16:39;131.52;;;12.13;;
74383;SDS011;62824;52.994;-3.936;2024-02-04T05:19:09;198.63;;;15.32;;
74383;SDS011;62824;52.994;-3.936;2024-02-04T05:21:37;150.02;;;13.57;;
74383;SDS011;62824;52.994;-3.936;2024-02-04T05:24:05;157.98;;;14.18;;
74383;SDS011;62824;52.994;-3.936;2024-02-04T05:26:32;297.42;;;23.48;;
74383;SDS011;62824;52.994;-3.936;2024-02-04T05:28:58;44.45;;;7.35;;
74383;SDS011;62824;52.994;-3.936;2024-02-04T05:31:29;240.65;;;17.95;;
74383;SDS011;62824;52.994;-3.936;2024-02-04T05:33:56;195.20;;;17.30;;
74383;SDS011;62824;52.994;-3.936;2024-02-04T05:36:24;121.25;;;12.45;;
74383;SDS011;62824;52.994;-3.936;2024-02-04T05:38:53;42.22;;;6.05;;
74383;SDS011;62824;52.994;-3.936;2024-02-04T05:41:39;97.70;;;9.68;;
74383;SDS011;62824;52.994;-3.936;2024-02-04T05:44:06;179.52;;;13.98;;
74383;SDS011;62824;52.994;-3.936;2024-02-04T05:46:37;26.42;;;4.80;;
74383;SDS011;62824;52.994;-3.936;2024-02-04T05:49:05;180.18;;;14.15;;
74383;SDS011;62824;52.994;-3.936;2024-02-04T05:51:39;262.33;;;21.23;;
74383;SDS011;62824;52.994;-3.936;2024-02-04T05:54:07;167.52;;;16.35;;
74383;SDS011;62824;52.994;-3.936;2024-02-04T05:56:39;293.52;;;22.60;;
74383;SDS011;62824;52.994;-3.936;2024-02-04T05:59:08;19.55;;;3.58;;
74383;SDS011;62824;52.994;-3.936;2024-02-04T06:01:40;316.85;;;23.90;;
74383;SDS011;62824;52.994;-3.936;2024-02-04T06:04:11;21.17;;;3.90;;
74383;SDS011;62824;52.994;-3.936;2024-02-04T06:06:38;8.60;;;2.92;;
74383;SDS011;62824;52.994;-3.936;2024-02-04T06:09:06;55.40;;;6.72;;
74383;SDS011;62824;52.994;-3.936;2024-02-04T06:11:33;23.45;;;4.20;;
74383;SDS011;62824;52.994;-3.936;2024-02-04T06:13:59;20.30;;;4.68;;
74383;SDS011;62824;52.994;-3.936;2024-02-04T06:16:26;19.58;;;3.88;;
74383;SDS011;62824;52.994;-3.936;2024-02-04T06:19:06;26.55;;;5.75;;
74383;SDS011;62824;52.994;-3.936;2024-02-04T06:21:36;6.20;;;3.33;;
74383;SDS011;62824;52.994;-3.936;2024-02-04T06:24:02;8.95;;;3.05;;
74383;SDS011;62824;52.994;-3.936;2024-02-04T06:26:37;149.97;;;12.97;;
74383;SDS011;62824;52.994;-3.936;2024-02-04T06:29:04;8.75;;;2.85;;
74383;SDS011;62824;52.994;-3.936;2024-02-04T06:31:32;9.80;;;3.40;;
74383;SDS011;62824;52.994;-3.936;2024-02-04T06:34:07;15.55;;;3.90;;
74383;SDS011;62824;52.994;-3.936;2024-02-04T06:36:34;12.05;;;3.58;;
74383;SDS011;62824;52.994;-3.936;2024-02-04T06:39:08;5.10;;;2.38;;
74383;SDS011;62824;52.994;-3.936;2024-02-04T06:41:43;6.80;;;2.90;;
74383;SDS011;62824;52.994;-3.936;2024-02-04T06:44:10;5.90;;;2.88;;
74383;SDS011;62824;52.994;-3.936;2024-02-04T06:46:39;9.18;;;2.90;;
74383;SDS011;62824;52.994;-3.936;2024-02-04T06:49:06;6.65;;;2.70;;
74383;SDS011;62824;52.994;-3.936;2024-02-04T06:51:38;6.82;;;3.50;;
74383;SDS011;62824;52.994;-3.936;2024-02-04T06:54:04;6.70;;;2.97;;
74383;SDS011;62824;52.994;-3.936;2024-02-04T06:56:31;10.88;;;3.65;;
74383;SDS011;62824;52.994;-3.936;2024-02-04T06:58:57;10.73;;;3.92;;
74383;SDS011;62824;52.994;-3.936;2024-02-04T07:01:26;7.82;;;2.60;;
74383;SDS011;62824;52.994;-3.936;2024-02-04T07:03:52;10.93;;;3.70;;
74383;SDS011;62824;52.994;-3.936;2024-02-04T07:06:21;8.02;;;2.25;;
74383;SDS011;62824;52.994;-3.936;2024-02-04T07:08:56;5.28;;;2.13;;
74383;SDS011;62824;52.994;-3.936;2024-02-04T07:11:27;32.33;;;4.78;;
74383;SDS011;62824;52.994;-3.936;2024-02-04T07:13:55;49.65;;;6.40;;
74383;SDS011;62824;52.994;-3.936;2024-02-04T07:16:26;12.85;;;3.75;;
74383;SDS011;62824;52.994;-3.936;2024-02-04T07:19:00;22.35;;;3.95;;
74383;SDS011;62824;52.994;-3.936;2024-02-04T07:21:28;147.38;;;12.40;;
74383;SDS011;62824;52.994;-3.936;2024-02-04T07:23:54;74.82;;;7.68;;
74383;SDS011;62824;52.994;-3.936;2024-02-04T07:26:29;141.75;;;10.45;;
74383;SDS011;62824;52.994;-3.936;2024-02-04T07:28:56;7.95;;;3.70;;
74383;SDS011;62824;52.994;-3.936;2024-02-04T07:31:22;18.75;;;3.83;;
74383;SDS011;62824;52.994;-3.936;2024-02-04T07:33:48;6.72;;;2.60;;
74383;SDS011;62824;52.994;-3.936;2024-02-04T07:36:18;9.18;;;2.67;;
74383;SDS011;62824;52.994;-3.936;2024-02-04T07:38:47;8.68;;;2.58;;
74383;SDS011;62824;52.994;-3.936;2024-02-04T07:41:14;12.27;;;3.00;;
74383;SDS011;62824;52.994;-3.936;2024-02-04T07:43:40;49.60;;;5.15;;
74383;SDS011;62824;52.994;-3.936;2024-02-04T07:46:09;92.10;;;10.25;;
74383;SDS011;62824;52.994;-3.936;2024-02-04T07:48:36;206.75;;;16.45;;
74383;SDS011;62824;52.994;-3.936;2024-02-04T07:51:02;236.57;;;19.17;;
74383;SDS011;62824;52.994;-3.936;2024-02-04T07:53:28;351.55;;;26.55;;
74383;SDS011;62824;52.994;-3.936;2024-02-04T07:55:56;318.10;;;26.25;;
74383;SDS011;62824;52.994;-3.936;2024-02-04T07:58:25;287.27;;;24.40;;
74383;SDS011;62824;52.994;-3.936;2024-02-04T08:00:52;361.00;;;28.48;;
74383;SDS011;62824;52.994;-3.936;2024-02-04T08:03:23;296.58;;;24.30;;
74383;SDS011;62824;52.994;-3.936;2024-02-04T08:05:50;348.58;;;26.30;;
74383;SDS011;62824;52.994;-3.936;2024-02-04T08:08:16;394.20;;;30.55;;
74383;SDS011;62824;52.994;-3.936;2024-02-04T08:10:43;337.33;;;26.08;;
74383;SDS011;62824;52.994;-3.936;2024-02-04T08:13:22;403.40;;;29.38;;
74383;SDS011;62824;52.994;-3.936;2024-02-04T08:15:50;355.38;;;31.02;;
74383;SDS011;62824;52.994;-3.936;2024-02-04T08:18:17;353.15;;;26.83;;
74383;SDS011;62824;52.994;-3.936;2024-02-04T08:20:47;348.90;;;27.85;;
74383;SDS011;62824;52.994;-3.936;2024-02-04T08:23:14;407.02;;;34.55;;
74383;SDS011;62824;52.994;-3.936;2024-02-04T08:25:45;406.30;;;28.77;;
74383;SDS011;62824;52.994;-3.936;2024-02-04T08:28:12;411.25;;;30.63;;
74383;SDS011;62824;52.994;-3.936;2024-02-04T08:30:38;427.40;;;32.25;;
74383;SDS011;62824;52.994;-3.936;2024-02-04T08:33:06;254.48;;;19.10;;
74383;SDS011;62824;52.994;-3.936;2024-02-04T08:35:34;241.38;;;20.15;;
74383;SDS011;62824;52.994;-3.936;2024-02-04T08:38:01;268.90;;;20.35;;
74383;SDS011;62824;52.994;-3.936;2024-02-04T08:40:28;354.33;;;27.90;;
74383;SDS011;62824;52.994;-3.936;2024-02-04T08:42:55;243.63;;;18.48;;
74383;SDS011;62824;52.994;-3.936;2024-02-04T08:45:23;371.73;;;32.70;;
74383;SDS011;62824;52.994;-3.936;2024-02-04T08:47:49;207.27;;;17.70;;
74383;SDS011;62824;52.994;-3.936;2024-02-04T08:50:20;473.63;;;39.20;;
74383;SDS011;62824;52.994;-3.936;2024-02-04T08:52:50;463.00;;;35.38;;
74383;SDS011;62824;52.994;-3.936;2024-02-04T08:55:16;320.70;;;26.45;;
74383;SDS011;62824;52.994;-3.936;2024-02-04T08:57:46;520.72;;;39.67;;
74383;SDS011;62824;52.994;-3.936;2024-02-04T09:00:18;351.58;;;26.20;;
74383;SDS011;62824;52.994;-3.936;2024-02-04T09:02:46;77.50;;;6.93;;
74383;SDS011;62824;52.994;-3.936;2024-02-04T09:05:13;65.05;;;6.22;;
74383;SDS011;62824;52.994;-3.936;2024-02-04T09:07:43;146.65;;;14.43;;
74383;SDS011;62824;52.994;-3.936;2024-02-04T09:10:10;215.60;;;18.42;;
74383;SDS011;62824;52.994;-3.936;2024-02-04T09:12:37;239.15;;;19.15;;
74383;SDS011;62824;52.994;-3.936;2024-02-04T09:15:04;525.83;;;47.20;;
74383;SDS011;62824;52.994;-3.936;2024-02-04T09:17:31;327.77;;;31.58;;
74383;SDS011;62824;52.994;-3.936;2024-02-04T09:19:59;346.67;;;27.85;;
74383;SDS011;62824;52.994;-3.936;2024-02-04T09:22:30;335.02;;;27.15;;
74383;SDS011;62824;52.994;-3.936;2024-02-04T09:24:56;325.63;;;27.65;;
74383;SDS011;62824;52.994;-3.936;2024-02-04T09:27:24;167.98;;;14.73;;
74383;SDS011;62824;52.994;-3.936;2024-02-04T09:29:51;204.13;;;15.30;;
74383;SDS011;62824;52.994;-3.936;2024-02-04T09:32:20;425.70;;;39.25;;
74383;SDS011;62824;52.994;-3.936;2024-02-04T09:34:46;438.85;;;35.28;;
74383;SDS011;62824;52.994;-3.936;2024-02-04T09:37:13;398.33;;;28.88;;
74383;SDS011;62824;52.994;-3.936;2024-02-04T09:39:39;398.35;;;30.65;;
74383;SDS011;62824;52.994;-3.936;2024-02-04T09:42:23;411.33;;;34.67;;
74383;SDS011;62824;52.994;-3.936;2024-02-04T09:44:50;335.77;;;28.73;;
74383;SDS011;62824;52.994;-3.936;2024-02-04T09:47:17;239.23;;;19.58;;
74383;SDS011;62824;52.994;-3.936;2024-02-04T09:49:44;394.30;;;32.90;;
74383;SDS011;62824;52.994;-3.936;2024-02-04T09:52:12;353.05;;;27.10;;
74383;SDS011;62824;52.994;-3.936;2024-02-04T09:54:49;356.27;;;29.15;;
74383;SDS011;62824;52.994;-3.936;2024-02-04T09:57:19;187.75;;;18.40;;
74383;SDS011;62824;52.994;-3.936;2024-02-04T09:59:48;306.40;;;25.25;;
74383;SDS011;62824;52.994;-3.936;2024-02-04T10:02:18;359.80;;;31.15;;
74383;SDS011;62824;52.994;-3.936;2024-02-04T10:04:55;310.70;;;25.90;;
74383;SDS011;62824;52.994;-3.936;2024-02-04T10:07:24;338.90;;;25.65;;
74383;SDS011;62824;52.994;-3.936;2024-02-04T10:09:55;390.48;;;32.03;;
74383;SDS011;62824;52.994;-3.936;2024-02-04T10:12:39;400.70;;;32.30;;
74383;SDS011;62824;52.994;-3.936;2024-02-04T10:15:19;381.50;;;31.65;;
74383;SDS011;62824;52.994;-3.936;2024-02-04T10:17:49;388.42;;;29.50;;
74383;SDS011;62824;52.994;-3.936;2024-02-04T10:20:15;393.88;;;26.27;;
74383;SDS011;62824;52.994;-3.936;2024-02-04T10:23:05;499.25;;;43.88;;
74383;SDS011;62824;52.994;-3.936;2024-02-04T10:28:30;294.17;;;25.00;;
74383;SDS011;62824;52.994;-3.936;2024-02-04T10:30:57;421.67;;;33.83;;
74383;SDS011;62824;52.994;-3.936;2024-02-04T10:33:25;410.65;;;32.65;;
74383;SDS011;62824;52.994;-3.936;2024-02-04T10:35:59;467.67;;;38.22;;
74383;SDS011;62824;52.994;-3.936;2024-02-04T10:38:27;436.40;;;31.13;;
74383;SDS011;62824;52.994;-3.936;2024-02-04T10:41:03;423.75;;;33.35;;
74383;SDS011;62824;52.994;-3.936;2024-02-04T10:43:41;388.30;;;31.08;;
74383;SDS011;62824;52.994;-3.936;2024-02-04T10:46:10;464.73;;;36.83;;
74383;SDS011;62824;52.994;-3.936;2024-02-04T10:48:41;381.00;;;36.92;;
74383;SDS011;62824;52.994;-3.936;2024-02-04T10:51:13;322.23;;;27.33;;
74383;SDS011;62824;52.994;-3.936;2024-02-04T10:53:44;475.02;;;37.95;;
74383;SDS011;62824;52.994;-3.936;2024-02-04T10:56:13;365.65;;;27.90;;
74383;SDS011;62824;52.994;-3.936;2024-02-04T10:58:45;278.75;;;20.15;;
74383;SDS011;62824;52.994;-3.936;2024-02-04T11:01:13;344.20;;;26.80;;
74383;SDS011;62824;52.994;-3.936;2024-02-04T11:03:39;447.15;;;39.47;;
74383;SDS011;62824;52.994;-3.936;2024-02-04T11:06:07;439.52;;;34.47;;
74383;SDS011;62824;52.994;-3.936;2024-02-04T11:08:34;431.35;;;38.40;;
74383;SDS011;62824;52.994;-3.936;2024-02-04T11:11:00;226.25;;;19.25;;
74383;SDS011;62824;52.994;-3.936;2024-02-04T11:13:26;271.90;;;22.08;;
74383;SDS011;62824;52.994;-3.936;2024-02-04T11:15:56;328.02;;;27.17;;
74383;SDS011;62824;52.994;-3.936;2024-02-04T11:18:34;368.73;;;29.77;;
74383;SDS011;62824;52.994;-3.936;2024-02-04T11:27:14;258.55;;;19.73;;
74383;SDS011;62824;52.994;-3.936;2024-02-04T11:29:41;154.25;;;13.80;;
74383;SDS011;62824;52.994;-3.936;2024-02-04T11:32:07;169.73;;;14.82;;
74383;SDS011;62824;52.994;-3.936;2024-02-04T11:34:34;123.53;;;13.18;;
74383;SDS011;62824;52.994;-3.936;2024-02-04T11:37:01;334.35;;;28.55;;
74383;SDS011;62824;52.994;-3.936;2024-02-04T11:39:47;272.40;;;24.17;;
74383;SDS011;62824;52.994;-3.936;2024-02-04T11:42:17;156.63;;;13.52;;
74383;SDS011;62824;52.994;-3.936;2024-02-04T11:44:45;158.95;;;13.80;;
74383;SDS011;62824;52.994;-3.936;2024-02-04T11:47:22;233.73;;;17.90;;
74383;SDS011;62824;52.994;-3.936;2024-02-04T11:49:57;372.83;;;31.88;;
74383;SDS011;62824;52.994;-3.936;2024-02-04T11:52:27;294.13;;;31.08;;
74383;SDS011;62824;52.994;-3.936;2024-02-04T11:54:54;169.65;;;17.90;;
74383;SDS011;62824;52.994;-3.936;2024-02-04T11:57:20;202.63;;;18.05;;
74383;SDS011;62824;52.994;-3.936;2024-02-04T11:59:47;347.02;;;28.73;;
74383;SDS011;62824;52.994;-3.936;2024-02-04T12:02:18;428.83;;;35.25;;
74383;SDS011;62824;52.994;-3.936;2024-02-04T12:54:06;259.23;;;22.05;;
74383;SDS011;62824;52.994;-3.936;2024-02-04T12:56:49;262.15;;;23.48;;
74383;SDS011;62824;52.994;-3.936;2024-02-04T12:59:26;187.77;;;15.68;;
74383;SDS011;62824;52.994;-3.936;2024-02-04T13:02:06;102.43;;;10.18;;
74383;SDS011;62824;52.994;-3.936;2024-02-04T13:04:38;299.77;;;24.73;;
74383;SDS011;62824;52.994;-3.936;2024-02-04T13:07:13;202.68;;;16.67;;
74383;SDS011;62824;52.994;-3.936;2024-02-04T13:09:42;290.02;;;24.25;;
74383;SDS011;62824;52.994;-3.936;2024-02-04T13:12:09;212.38;;;20.65;;
74383;SDS011;62824;52.994;-3.936;2024-02-04T13:14:43;197.40;;;20.55;;
74383;SDS011;62824;52.994;-3.936;2024-02-04T13:17:10;189.63;;;16.48;;
74383;SDS011;62824;52.994;-3.936;2024-02-04T13:19:44;255.68;;;22.15;;
74383;SDS011;62824;52.994;-3.936;2024-02-04T13:22:11;260.23;;;22.65;;
74383;SDS011;62824;52.994;-3.936;2024-02-04T13:24:39;79.32;;;9.10;;
74383;SDS011;62824;52.994;-3.936;2024-02-04T13:27:09;139.63;;;13.35;;
74383;SDS011;62824;52.994;-3.936;2024-02-04T13:29:44;123.20;;;12.23;;
74383;SDS011;62824;52.994;-3.936;2024-02-04T13:32:11;106.28;;;10.05;;
74383;SDS011;62824;52.994;-3.936;2024-02-04T13:34:37;53.38;;;6.20;;
74383;SDS011;62824;52.994;-3.936;2024-02-04T13:37:03;51.92;;;6.20;;
74383;SDS011;62824;52.994;-3.936;2024-02-04T13:39:35;81.88;;;9.05;;
74383;SDS011;62824;52.994;-3.936;2024-02-04T13:42:05;33.85;;;5.68;;
74383;SDS011;62824;52.994;-3.936;2024-02-04T13:44:31;20.73;;;4.38;;
74383;SDS011;62824;52.994;-3.936;2024-02-04T13:46:57;84.20;;;11.45;;
74383;SDS011;62824;52.994;-3.936;2024-02-04T13:49:27;46.22;;;6.60;;
74383;SDS011;62824;52.994;-3.936;2024-02-04T13:51:53;74.78;;;7.90;;
74383;SDS011;62824;52.994;-3.936;2024-02-04T13:54:19;67.55;;;8.60;;
74383;SDS011;62824;52.994;-3.936;2024-02-04T13:56:48;126.95;;;12.70;;
74383;SDS011;62824;52.994;-3.936;2024-02-04T13:59:15;266.10;;;22.38;;
74383;SDS011;62824;52.994;-3.936;2024-02-04T14:01:45;285.25;;;25.60;;
74383;SDS011;62824;52.994;-3.936;2024-02-04T14:04:11;259.15;;;22.45;;
74383;SDS011;62824;52.994;-3.936;2024-02-04T14:06:38;380.35;;;35.28;;
74383;SDS011;62824;52.994;-3.936;2024-02-04T14:09:05;182.32;;;19.33;;
74383;SDS011;62824;52.994;-3.936;2024-02-04T14:11:31;417.95;;;36.17;;
74383;SDS011;62824;52.994;-3.936;2024-02-04T14:14:01;348.58;;;35.30;;
74383;SDS011;62824;52.994;-3.936;2024-02-04T14:16:27;152.13;;;17.63;;
74383;SDS011;62824;52.994;-3.936;2024-02-04T14:18:57;391.25;;;34.63;;
74383;SDS011;62824;52.994;-3.936;2024-02-04T14:21:24;286.70;;;28.40;;
74383;SDS011;62824;52.994;-3.936;2024-02-04T14:23:50;338.65;;;30.75;;
74383;SDS011;62824;52.994;-3.936;2024-02-04T14:26:17;245.07;;;24.73;;
74383;SDS011;62824;52.994;-3.936;2024-02-04T14:28:44;362.23;;;35.22;;
74383;SDS011;62824;52.994;-3.936;2024-02-04T14:31:10;376.92;;;38.60;;
74383;SDS011;62824;52.994;-3.936;2024-02-04T14:33:37;272.38;;;25.60;;
74383;SDS011;62824;52.994;-3.936;2024-02-04T14:36:03;288.80;;;28.10;;
74383;SDS011;62824;52.994;-3.936;2024-02-04T14:38:29;241.57;;;24.70;;
74383;SDS011;62824;52.994;-3.936;2024-02-04T14:40:57;200.65;;;18.98;;
74383;SDS011;62824;52.994;-3.936;2024-02-04T14:43:24;258.00;;;24.83;;
74383;SDS011;62824;52.994;-3.936;2024-02-04T14:55:43;165.27;;;16.33;;
74383;SDS011;62824;52.994;-3.936;2024-02-04T14:58:10;85.57;;;12.30;;
74383;SDS011;62824;52.994;-3.936;2024-02-04T15:00:36;127.03;;;12.60;;
74383;SDS011;62824;52.994;-3.936;2024-02-04T15:03:05;77.05;;;10.15;;
74383;SDS011;62824;52.994;-3.936;2024-02-04T15:05:32;65.55;;;8.48;;
74383;SDS011;62824;52.994;-3.936;2024-02-04T15:08:02;110.28;;;12.95;;
74383;SDS011;62824;52.994;-3.936;2024-02-04T15:10:31;103.18;;;12.00;;
74383;SDS011;62824;52.994;-3.936;2024-02-04T15:13:07;75.00;;;10.32;;
74383;SDS011;62824;52.994;-3.936;2024-02-04T15:15:39;63.33;;;9.75;;
74383;SDS011;62824;52.994;-3.936;2024-02-04T15:18:05;88.55;;;10.82;;
74383;SDS011;62824;52.994;-3.936;2024-02-04T15:20:32;58.03;;;8.18;;
74383;SDS011;62824;52.994;-3.936;2024-02-04T15:22:59;55.55;;;8.07;;
74383;SDS011;62824;52.994;-3.936;2024-02-04T15:25:26;45.92;;;7.90;;
74383;SDS011;62824;52.994;-3.936;2024-02-04T15:27:52;54.25;;;8.30;;
74383;SDS011;62824;52.994;-3.936;2024-02-04T15:30:21;24.60;;;5.85;;
74383;SDS011;62824;52.994;-3.936;2024-02-04T15:32:48;28.90;;;6.63;;
74383;SDS011;62824;52.994;-3.936;2024-02-04T15:35:20;32.43;;;6.03;;
74383;SDS011;62824;52.994;-3.936;2024-02-04T15:37:47;23.02;;;5.05;;
74383;SDS011;62824;52.994;-3.936;2024-02-04T15:40:14;41.38;;;7.68;;
74383;SDS011;62824;52.994;-3.936;2024-02-04T15:42:41;31.15;;;6.85;;
74383;SDS011;62824;52.994;-3.936;2024-02-04T15:45:07;24.20;;;6.35;;
74383;SDS011;62824;52.994;-3.936;2024-02-04T15:47:34;29.00;;;6.88;;
74383;SDS011;62824;52.994;-3.936;2024-02-04T15:50:06;26.77;;;6.38;;
74383;SDS011;62824;52.994;-3.936;2024-02-04T15:52:34;28.65;;;6.60;;
74383;SDS011;62824;52.994;-3.936;2024-02-04T15:55:00;40.08;;;7.00;;
74383;SDS011;62824;52.994;-3.936;2024-02-04T15:57:31;34.97;;;7.22;;
74383;SDS011;62824;52.994;-3.936;2024-02-04T16:00:01;22.23;;;6.35;;
74383;SDS011;62824;52.994;-3.936;2024-02-04T16:02:39;24.95;;;5.88;;